createdAt,value
2022-08-17T00:02:26.467Z,93841.50
2022-08-17T00:04:54.178Z,93835.50
2022-08-17T00:07:20.872Z,93839.34
2022-08-17T00:09:47.771Z,93838.22
2022-08-17T00:12:43.193Z,93840.19
2022-08-17T00:15:01.298Z,93836.44
2022-08-17T00:17:27.928Z,93829.69
2022-08-17T00:19:54.573Z,93827.81
2022-08-17T00:22:33.585Z,93813.41
2022-08-17T00:25:07.731Z,93826.34
2022-08-17T00:27:35.248Z,93815.34
2022-08-17T00:30:02.061Z,93819.88
2022-08-17T00:33:12.432Z,93805.13
2022-08-17T00:35:25.147Z,93808.56
2022-08-17T00:37:52.560Z,93806.72
2022-08-17T00:40:20.434Z,93806.78
2022-08-17T00:42:48.294Z,93806.41
2022-08-17T00:45:17.608Z,93811.22
2022-08-17T00:47:44.420Z,93814.16
2022-08-17T00:50:14.826Z,93811.78
2022-08-17T00:52:54.174Z,93806.03
2022-08-17T00:55:22.491Z,93808.28
2022-08-17T00:57:55.165Z,93813.56
2022-08-17T01:00:28.199Z,93810.22
2022-08-17T01:02:58.996Z,93809.09
2022-08-17T01:05:29.841Z,93808.34
2022-08-17T01:07:57.281Z,93807.88
2022-08-17T01:10:59.690Z,93810.38
2022-08-17T01:13:18.023Z,93813.91
2022-08-17T01:15:53.431Z,93815.09
2022-08-17T01:18:20.116Z,93816.38
2022-08-17T01:20:53.676Z,93815.09
2022-08-17T01:23:23.440Z,93807.13
2022-08-17T01:25:52.464Z,93802.53
2022-08-17T01:28:52.750Z,93805.88
2022-08-17T01:31:09.050Z,93802.81
2022-08-17T01:33:36.258Z,93801.72
2022-08-17T01:36:06.885Z,93799.09
2022-08-17T01:38:38.282Z,93793.66
2022-08-17T01:41:12.505Z,93806.84
2022-08-17T01:43:51.973Z,93800.97
2022-08-17T01:46:28.168Z,93799.66
2022-08-17T01:48:57.475Z,93800.63
2022-08-17T01:51:32.866Z,93798.66
2022-08-17T01:54:05.294Z,93792.63
2022-08-17T01:56:34.074Z,93788.47
2022-08-17T01:59:00.842Z,93798.25
2022-08-17T02:01:30.278Z,93799.03
2022-08-17T02:04:01.234Z,93794.94
2022-08-17T02:06:31.343Z,93794.16
2022-08-17T02:09:16.848Z,93795.69
2022-08-17T02:11:44.933Z,93792.22
2022-08-17T02:14:13.258Z,93782.00
2022-08-17T02:16:41.675Z,93794.00
2022-08-17T02:19:12.175Z,93789.09
2022-08-17T02:21:40.677Z,93788.69
2022-08-17T02:24:10.979Z,93782.56
2022-08-17T02:26:37.943Z,93790.06
2022-08-17T02:29:04.888Z,93783.25
2022-08-17T02:31:31.755Z,93786.56
2022-08-17T02:34:03.830Z,93780.09
2022-08-17T02:36:34.055Z,93784.97
2022-08-17T02:39:02.704Z,93783.00
2022-08-17T02:41:29.349Z,93776.91
2022-08-17T02:43:55.977Z,93776.06
2022-08-17T02:46:22.677Z,93774.13
2022-08-17T02:48:49.465Z,93759.69
2022-08-17T02:51:16.775Z,93768.19
2022-08-17T02:53:43.568Z,93770.34
2022-08-17T02:56:10.183Z,93777.72
2022-08-17T02:58:36.783Z,93779.19
2022-08-17T03:01:06.201Z,93781.72
2022-08-17T03:03:33.162Z,93780.50
2022-08-17T03:06:00.402Z,93789.50
2022-08-17T03:08:27.262Z,93778.13
2022-08-17T03:10:54.115Z,93786.44
2022-08-17T03:13:20.937Z,93787.91
2022-08-17T03:15:48.479Z,93790.78
2022-08-17T03:18:25.802Z,93782.44
2022-08-17T03:20:58.716Z,93779.59
2022-08-17T03:23:27.308Z,93779.59
2022-08-17T03:25:55.055Z,93791.72
2022-08-17T03:28:23.462Z,93795.97
2022-08-17T03:30:51.228Z,93805.50
2022-08-17T03:33:19.153Z,93802.44
2022-08-17T03:35:46.764Z,93801.75
2022-08-17T03:38:15.091Z,93800.31
2022-08-17T03:40:56.878Z,93800.41
2022-08-17T03:43:29.341Z,93802.78
2022-08-17T03:46:28.386Z,93804.03
2022-08-17T03:49:19.337Z,93797.41
2022-08-17T03:52:04.594Z,93794.88
2022-08-17T03:54:49.869Z,93791.88
2022-08-17T03:57:16.684Z,93789.59
2022-08-17T03:59:43.389Z,93795.53
2022-08-17T04:02:17.752Z,93795.47
2022-08-17T04:04:44.776Z,93800.63
2022-08-17T04:07:11.580Z,93806.25
2022-08-17T04:09:38.234Z,93799.03
2022-08-17T04:12:05.735Z,93813.47
2022-08-17T04:14:36.676Z,93812.72
2022-08-17T04:17:20.414Z,93813.91
2022-08-17T04:19:47.177Z,93807.94
2022-08-17T04:22:30.894Z,93803.50
2022-08-17T04:25:14.777Z,93809.22
2022-08-17T04:27:41.287Z,93814.03
2022-08-17T04:30:08.777Z,93809.47
2022-08-17T04:33:04.058Z,93810.72
2022-08-17T04:35:43.495Z,93808.28
2022-08-17T04:38:16.354Z,93798.22
2022-08-17T04:41:02.493Z,93805.94
2022-08-17T04:43:32.012Z,93810.19
2022-08-17T04:46:05.263Z,93811.22
2022-08-17T04:48:37.042Z,93813.53
2022-08-17T04:51:16.032Z,93818.50
2022-08-17T04:53:45.278Z,93818.56
2022-08-17T04:56:16.881Z,93816.97
2022-08-17T04:58:49.945Z,93823.78
2022-08-17T05:01:23.355Z,93821.88
2022-08-17T05:03:54.778Z,93831.31
2022-08-17T05:06:22.203Z,93828.84
2022-08-17T05:08:48.880Z,93828.75
2022-08-17T05:11:15.819Z,93822.97
2022-08-17T05:13:42.710Z,93827.28
2022-08-17T05:16:09.484Z,93827.84
2022-08-17T05:18:38.762Z,93821.53
2022-08-17T05:21:06.900Z,93824.25
2022-08-17T05:23:41.628Z,93830.81
2022-08-17T05:26:12.479Z,93826.84
2022-08-17T05:29:00.587Z,93825.31
2022-08-17T05:31:29.916Z,93828.31
2022-08-17T05:33:56.849Z,93839.13
2022-08-17T05:36:41.839Z,93827.94
2022-08-17T05:39:10.757Z,93838.75
2022-08-17T05:41:43.544Z,93836.22
2022-08-17T05:44:10.683Z,93839.78
2022-08-17T05:46:41.737Z,93830.81
2022-08-17T05:49:08.703Z,93834.41
2022-08-17T05:51:57.135Z,93833.50
2022-08-17T05:54:26.443Z,93833.56
2022-08-17T05:57:26.852Z,93840.81
2022-08-17T06:00:26.371Z,93850.34
2022-08-17T06:03:31.279Z,93854.16
2022-08-17T06:06:01.437Z,93852.00
2022-08-17T06:08:57.931Z,93849.09
2022-08-17T06:11:24.494Z,93852.31
2022-08-17T06:14:16.601Z,93858.59
2022-08-17T06:16:50.778Z,93851.22
2022-08-17T06:19:27.758Z,93851.06
2022-08-17T06:21:55.033Z,93849.41
2022-08-17T06:24:28.103Z,93854.16
2022-08-17T06:27:01.420Z,93858.88
2022-08-17T06:29:38.691Z,93866.28
2022-08-17T06:34:47.121Z,93874.63
2022-08-17T06:37:16.527Z,93880.91
2022-08-17T06:40:14.513Z,93884.06
2022-08-17T06:43:07.037Z,93878.81
2022-08-17T06:45:59.185Z,93886.44
2022-08-17T06:48:38.183Z,93889.47
2022-08-17T06:51:19.070Z,93894.38
2022-08-17T06:54:05.490Z,93889.84
2022-08-17T06:57:07.101Z,93891.06
2022-08-17T07:00:06.739Z,93895.81
2022-08-17T07:02:52.566Z,93895.97
2022-08-17T07:05:23.083Z,93898.34
2022-08-17T07:08:18.856Z,93906.50
2022-08-17T07:10:53.825Z,93900.13
2022-08-17T07:13:42.997Z,93878.56
2022-08-17T07:16:17.706Z,93875.59
2022-08-17T07:18:44.657Z,93873.78
2022-08-17T07:22:01.494Z,93872.66
2022-08-17T07:24:47.320Z,93860.50
2022-08-17T07:27:21.603Z,93871.16
2022-08-17T07:29:50.587Z,93866.63
2022-08-17T07:32:22.798Z,93870.78
2022-08-17T07:35:31.321Z,93863.53
2022-08-17T07:38:25.530Z,93860.44
2022-08-17T07:41:03.019Z,93865.75
2022-08-17T07:43:37.799Z,93871.44
2022-08-17T07:46:41.129Z,93876.72
2022-08-17T07:49:10.719Z,93879.69
2022-08-17T07:51:43.274Z,93882.69
2022-08-17T07:54:15.947Z,93886.81
2022-08-17T07:56:45.249Z,93883.72
2022-08-17T07:59:23.087Z,93874.53
2022-08-17T08:02:06.262Z,93873.38
2022-08-17T08:07:38.182Z,93880.19
2022-08-17T08:10:07.522Z,93880.13
2022-08-17T08:12:46.910Z,93875.53
2022-08-17T08:15:21.322Z,93876.22
2022-08-17T08:18:01.343Z,93878.78
2022-08-17T08:20:53.884Z,93864.19
2022-08-17T08:23:33.685Z,93861.38
2022-08-17T08:26:18.928Z,93882.28
2022-08-17T08:29:13.700Z,93895.88
2022-08-17T08:31:48.414Z,93890.84
2022-08-17T08:34:59.211Z,93885.47
2022-08-17T08:37:34.437Z,93886.19
2022-08-17T08:40:04.044Z,93886.19
2022-08-17T08:42:40.574Z,93881.56
2022-08-17T08:45:43.471Z,93881.88
2022-08-17T08:48:53.156Z,93886.81
2022-08-17T08:51:40.192Z,93883.28
2022-08-17T08:54:15.653Z,93880.84
2022-08-17T08:57:24.229Z,93879.53
2022-08-17T09:00:15.478Z,93877.59
2022-08-17T09:03:02.888Z,93877.75
2022-08-17T09:05:38.235Z,93871.03
2022-08-17T09:08:23.361Z,93866.69
2022-08-17T09:10:56.794Z,93858.81
2022-08-17T09:13:54.362Z,93866.94
2022-08-17T09:16:42.753Z,93859.03
2022-08-17T09:19:21.875Z,93854.56
2022-08-17T09:22:07.586Z,93859.28
2022-08-17T09:24:47.526Z,93859.13
2022-08-17T09:27:40.131Z,93850.69
2022-08-17T09:30:10.942Z,93845.41
2022-08-17T09:32:46.092Z,93855.91
2022-08-17T09:35:39.408Z,93870.41
2022-08-17T09:38:05.943Z,93879.56
2022-08-17T09:40:59.197Z,93886.72
2022-08-17T09:43:50.526Z,93896.63
2022-08-17T09:46:25.507Z,93906.81
2022-08-17T09:49:29.429Z,93904.63
2022-08-17T09:52:01.174Z,93895.97
2022-08-17T09:54:40.906Z,93901.31
2022-08-17T09:57:31.802Z,93906.63
2022-08-17T10:00:10.160Z,93909.66
2022-08-17T10:02:56.916Z,93910.41
2022-08-17T10:05:37.688Z,93923.41
2022-08-17T10:08:10.106Z,93915.72
2022-08-17T10:10:52.237Z,93920.81
2022-08-17T10:13:54.678Z,93923.09
2022-08-17T10:16:38.773Z,93926.16
2022-08-17T10:19:14.389Z,93920.91
2022-08-17T10:22:15.008Z,93916.34
2022-08-17T10:25:23.263Z,93922.38
2022-08-17T10:27:56.625Z,93936.13
2022-08-17T10:30:27.431Z,93937.88
2022-08-17T10:33:01.204Z,93935.19
2022-08-17T10:36:10.644Z,93926.59
2022-08-17T10:38:46.798Z,93927.88
2022-08-17T10:41:20.785Z,93932.25
2022-08-17T10:44:39.420Z,93927.88
2022-08-17T10:47:11.719Z,93928.56
2022-08-17T10:49:47.460Z,93920.56
2022-08-17T10:52:19.852Z,93926.16
2022-08-17T10:55:05.973Z,93938.22
2022-08-17T10:57:37.654Z,93944.31
2022-08-17T11:00:15.246Z,93946.59
2022-08-17T11:02:42.272Z,93943.03
2022-08-17T11:05:14.581Z,93946.59
2022-08-17T11:07:59.841Z,93954.69
2022-08-17T11:10:51.721Z,93954.88
2022-08-17T11:13:37.731Z,93939.69
2022-08-17T11:16:13.280Z,93948.91
2022-08-17T11:19:08.598Z,93965.91
2022-08-17T11:22:03.023Z,93965.34
2022-08-17T11:24:35.415Z,93958.19
2022-08-17T11:27:12.122Z,93956.75
2022-08-17T11:30:04.830Z,93959.22
2022-08-17T11:32:54.548Z,93951.59
2022-08-17T11:35:21.649Z,93955.50
2022-08-17T11:37:54.087Z,93951.75
2022-08-17T11:40:20.688Z,93954.44
2022-08-17T11:43:05.365Z,93951.56
2022-08-17T11:45:45.190Z,93960.94
2022-08-17T11:49:02.428Z,93965.41
2022-08-17T11:52:01.135Z,93961.19
2022-08-17T11:54:33.874Z,93968.78
2022-08-17T11:57:26.907Z,93978.44
2022-08-17T11:59:58.769Z,93978.94
2022-08-17T12:02:28.010Z,93976.69
2022-08-17T12:05:27.540Z,93976.06
2022-08-17T12:08:06.197Z,93976.25
2022-08-17T12:10:35.641Z,93980.19
2022-08-17T12:13:14.765Z,93981.56
2022-08-17T12:15:48.832Z,93983.81
2022-08-17T12:18:28.036Z,93985.66
2022-08-17T12:21:26.019Z,93988.63
2022-08-17T12:24:21.139Z,93994.22
2022-08-17T12:26:56.809Z,94008.69
2022-08-17T12:29:35.166Z,94001.78
2022-08-17T12:32:07.048Z,93997.19
2022-08-17T12:34:43.225Z,94001.69
2022-08-17T12:37:24.459Z,93992.72
2022-08-17T12:40:18.384Z,93990.53
2022-08-17T12:43:07.859Z,94003.81
2022-08-17T12:45:39.447Z,93994.31
2022-08-17T12:48:09.486Z,93993.06
2022-08-17T12:50:38.524Z,93987.09
2022-08-17T12:53:35.143Z,93975.34
2022-08-17T12:56:07.468Z,93964.31
2022-08-17T12:58:43.798Z,93969.38
2022-08-17T13:01:15.853Z,93958.03
2022-08-17T13:03:49.497Z,93952.50
2022-08-17T13:06:37.323Z,93944.66
2022-08-17T13:09:13.102Z,93951.78
2022-08-17T13:11:51.886Z,93960.09
2022-08-17T13:14:19.244Z,93956.06
2022-08-17T13:17:09.705Z,93950.78
2022-08-17T13:19:48.950Z,93947.69
2022-08-17T13:22:15.606Z,93940.41
2022-08-17T13:24:55.565Z,93929.25
2022-08-17T13:27:25.744Z,93918.16
2022-08-17T13:29:57.505Z,93919.34
2022-08-17T13:32:47.354Z,93909.94
2022-08-17T13:35:47.075Z,93912.97
2022-08-17T13:38:35.927Z,93909.94
2022-08-17T13:41:04.059Z,93911.44
2022-08-17T13:43:46.312Z,93913.97
2022-08-17T13:46:21.667Z,93918.34
2022-08-17T13:49:09.603Z,93921.63
2022-08-17T13:51:43.335Z,93920.06
2022-08-17T13:54:24.935Z,93915.56
2022-08-17T13:57:00.940Z,93920.31
2022-08-17T13:59:52.728Z,93919.94
2022-08-17T14:02:22.931Z,93921.81
2022-08-17T14:04:54.181Z,93918.50
2022-08-17T14:07:27.826Z,93908.69
2022-08-17T14:09:59.622Z,93905.31
2022-08-17T14:12:29.011Z,93899.00
2022-08-17T14:14:56.682Z,93904.13
2022-08-17T14:17:24.320Z,93904.97
2022-08-17T14:19:51.305Z,93903.56
2022-08-17T14:22:38.462Z,93890.47
2022-08-17T14:25:08.669Z,93884.88
2022-08-17T14:27:51.838Z,93874.84
2022-08-17T14:30:26.936Z,93870.38
2022-08-17T14:32:56.574Z,93866.72
2022-08-17T14:35:25.180Z,93871.91
2022-08-17T14:37:52.372Z,93874.00
2022-08-17T14:40:20.942Z,93877.28
2022-08-17T14:42:48.102Z,93875.03
2022-08-17T14:45:30.314Z,93871.16
2022-08-17T14:48:01.262Z,93863.06
2022-08-17T14:50:27.870Z,93875.88
2022-08-17T14:52:56.287Z,93885.16
2022-08-17T14:55:25.013Z,93870.75
2022-08-17T14:57:51.938Z,93864.81
2022-08-17T15:00:18.748Z,93874.84
2022-08-17T15:02:54.110Z,93888.50
2022-08-17T15:05:24.554Z,93881.22
2022-08-17T15:07:53.479Z,93877.00
2022-08-17T15:10:20.291Z,93880.25
2022-08-17T15:12:46.979Z,93871.44
2022-08-17T15:15:15.765Z,93873.91
2022-08-17T15:17:44.430Z,93877.31
2022-08-17T15:20:18.187Z,93865.44
2022-08-17T15:22:46.116Z,93867.69
2022-08-17T15:25:13.529Z,93873.56
2022-08-17T15:27:40.393Z,93871.72
2022-08-17T15:30:09.417Z,93872.53
2022-08-17T15:32:39.170Z,93872.50
2022-08-17T15:35:08.825Z,93878.03
2022-08-17T15:37:36.402Z,93876.19
2022-08-17T15:40:04.477Z,93878.88
2022-08-17T15:42:31.370Z,93870.47
2022-08-17T15:45:00.033Z,93867.47
2022-08-17T15:47:26.731Z,93870.00
2022-08-17T15:49:57.949Z,93869.50
2022-08-17T15:52:29.845Z,93871.19
2022-08-17T15:54:59.222Z,93858.38
2022-08-17T15:57:26.968Z,93859.78
2022-08-17T15:59:58.629Z,93860.28
2022-08-17T16:03:45.508Z,93858.38
2022-08-17T16:05:23.447Z,93847.78
2022-08-17T16:07:52.080Z,93851.22
2022-08-17T16:10:19.578Z,93852.63
2022-08-17T16:12:48.585Z,93853.72
2022-08-17T16:15:16.792Z,93838.88
2022-08-17T16:17:43.673Z,93845.59
2022-08-17T16:20:19.950Z,93839.16
2022-08-17T16:22:49.231Z,93837.91
2022-08-17T16:25:23.052Z,93830.47
2022-08-17T16:28:09.605Z,93830.69
2022-08-17T16:30:37.428Z,93826.00
2022-08-17T16:33:05.532Z,93828.47
2022-08-17T16:35:33.297Z,93824.94
2022-08-17T16:37:59.921Z,93826.72
2022-08-17T16:40:29.319Z,93815.06
2022-08-17T16:42:57.974Z,93817.03
2022-08-17T16:45:27.501Z,93810.81
2022-08-17T16:47:54.523Z,93810.47
2022-08-17T16:50:23.866Z,93807.50
2022-08-17T16:52:50.861Z,93805.56
2022-08-17T16:55:20.468Z,93807.34
2022-08-17T16:57:50.195Z,93808.03
2022-08-17T17:00:19.345Z,93814.28
2022-08-17T17:02:47.972Z,93813.19
2022-08-17T17:05:44.032Z,93811.03
2022-08-17T17:08:19.600Z,93811.22
2022-08-17T17:10:49.747Z,93812.94
2022-08-17T17:13:25.538Z,93808.50
2022-08-17T17:16:03.433Z,93805.91
2022-08-17T17:18:41.474Z,93803.41
2022-08-17T17:21:14.441Z,93796.34
2022-08-17T17:23:55.112Z,93800.22
2022-08-17T17:26:39.468Z,93790.00
2022-08-17T17:29:49.794Z,93781.28
2022-08-17T17:32:31.807Z,93789.09
2022-08-17T17:35:06.945Z,93788.94
2022-08-17T17:37:35.328Z,93783.44
2022-08-17T17:40:09.473Z,93779.34
2022-08-17T17:42:40.548Z,93784.78
2022-08-17T17:45:07.674Z,93775.69
2022-08-17T17:47:36.260Z,93779.56
2022-08-17T17:50:05.316Z,93776.59
2022-08-17T17:52:50.831Z,93775.16
2022-08-17T17:55:33.082Z,93775.25
2022-08-17T17:58:42.597Z,93770.81
2022-08-17T18:01:29.072Z,93770.53
2022-08-17T18:04:17.028Z,93771.81
2022-08-17T18:07:17.910Z,93787.16
2022-08-17T18:10:19.673Z,93778.88
2022-08-17T18:13:08.028Z,93779.00
2022-08-17T18:15:40.376Z,93789.81
2022-08-17T18:18:17.179Z,93791.06
2022-08-17T18:20:55.942Z,93790.72
2022-08-17T18:23:28.215Z,93794.25
2022-08-17T18:25:56.360Z,93805.41
2022-08-17T18:28:43.936Z,93797.13
2022-08-17T18:31:19.507Z,93807.81
2022-08-17T18:33:49.153Z,93805.59
2022-08-17T18:36:28.079Z,93801.09
2022-08-17T18:39:19.944Z,93803.81
2022-08-17T18:41:52.047Z,93804.66
2022-08-17T18:44:30.100Z,93808.13
2022-08-17T18:47:25.581Z,93801.28
2022-08-17T18:49:58.574Z,93804.34
2022-08-17T18:52:31.284Z,93805.88
2022-08-17T18:55:03.617Z,93805.91
2022-08-17T18:57:44.380Z,93805.16
2022-08-17T19:00:31.042Z,93803.66
2022-08-17T19:03:02.112Z,93808.25
2022-08-17T19:05:34.849Z,93804.50
2022-08-17T19:08:29.502Z,93808.66
2022-08-17T19:10:58.833Z,93809.84
2022-08-17T19:13:39.667Z,93806.06
2022-08-17T19:16:41.759Z,93808.75
2022-08-17T19:19:21.140Z,93806.13
2022-08-17T19:21:53.790Z,93789.38
2022-08-17T19:24:23.738Z,93786.00
2022-08-17T19:26:58.778Z,93787.13
2022-08-17T19:29:46.240Z,93787.88
2022-08-17T19:32:16.461Z,93782.59
2022-08-17T19:34:44.687Z,93791.72
2022-08-17T19:37:17.310Z,93784.13
2022-08-17T19:40:05.061Z,93783.34
2022-08-17T19:42:47.699Z,93789.84
2022-08-17T19:45:45.623Z,93789.44
2022-08-17T19:48:46.387Z,93790.19
2022-08-17T19:51:21.435Z,93803.50
2022-08-17T19:54:05.040Z,93803.88
2022-08-17T19:56:45.433Z,93815.28
2022-08-17T19:59:35.784Z,93812.66
2022-08-17T20:02:23.072Z,93811.50
2022-08-17T20:04:52.733Z,93824.03
2022-08-17T20:07:28.534Z,93821.34
2022-08-17T20:10:08.202Z,93818.72
2022-08-17T20:12:37.548Z,93824.03
2022-08-17T20:15:10.041Z,93826.69
2022-08-17T20:17:42.513Z,93825.94
2022-08-17T20:20:19.606Z,93830.50
2022-08-17T20:23:05.603Z,93833.53
2022-08-17T20:25:36.565Z,93825.16
2022-08-17T20:28:41.292Z,93826.28
2022-08-17T20:31:49.834Z,93818.66
2022-08-17T20:34:25.470Z,93815.97
2022-08-17T20:37:15.442Z,93828.53
2022-08-17T20:40:05.818Z,93825.88
2022-08-17T20:42:34.007Z,93835.78
2022-08-17T20:45:22.081Z,93837.28
2022-08-17T20:48:18.643Z,93832.69
2022-08-17T20:50:44.098Z,93827.00
2022-08-17T20:53:31.441Z,93836.53
2022-08-17T20:55:58.501Z,93828.22
2022-08-17T20:58:29.983Z,93827.06
2022-08-17T21:00:58.619Z,93838.44
2022-08-17T21:03:26.759Z,93838.09
2022-08-17T21:06:17.314Z,93841.88
2022-08-17T21:08:54.036Z,93849.09
2022-08-17T21:11:57.222Z,93854.81
2022-08-17T21:14:32.936Z,93879.50
2022-08-17T21:17:17.519Z,93917.88
2022-08-17T21:20:26.424Z,93944.06
2022-08-17T21:23:07.183Z,93950.13
2022-08-17T21:25:57.555Z,93960.38
2022-08-17T21:28:36.207Z,93977.88
2022-08-17T21:31:34.414Z,93999.91
2022-08-17T21:34:16.659Z,94009.75
2022-08-17T21:36:44.423Z,94018.78
2022-08-17T21:39:14.456Z,94017.91
2022-08-17T21:41:52.915Z,94025.38
2022-08-17T21:44:21.547Z,94047.22
2022-08-17T21:46:51.732Z,94036.72
2022-08-17T21:49:21.175Z,94036.13
2022-08-17T21:51:54.235Z,94037.53
2022-08-17T21:54:31.357Z,94041.16
2022-08-17T21:57:01.060Z,94036.47
2022-08-17T21:59:35.665Z,94052.31
2022-08-17T22:02:06.265Z,94048.06
2022-08-17T22:04:38.463Z,94055.09
2022-08-17T22:07:07.980Z,94054.22
2022-08-17T22:09:47.996Z,94069.97
2022-08-17T22:12:24.124Z,94077.41
2022-08-17T22:14:57.997Z,94088.25
2022-08-17T22:17:37.030Z,94092.97
2022-08-17T22:20:18.210Z,94095.50
2022-08-17T22:23:06.234Z,94099.94
2022-08-17T22:25:40.639Z,94103.19
2022-08-17T22:28:10.450Z,94101.53
2022-08-17T22:30:41.147Z,94112.84
2022-08-17T22:33:32.874Z,94113.94
2022-08-17T22:36:31.000Z,94117.28
2022-08-17T22:39:23.043Z,94120.25
2022-08-17T22:41:54.276Z,94116.41
2022-08-17T22:44:29.625Z,94123.19
2022-08-17T22:47:14.687Z,94136.81
2022-08-17T22:49:58.464Z,94132.28
2022-08-17T22:52:35.094Z,94139.09
2022-08-17T22:55:35.506Z,94138.75
2022-08-17T22:58:28.819Z,94132.38
2022-08-17T23:00:55.879Z,94133.47
2022-08-17T23:03:27.952Z,94128.88
2022-08-17T23:06:09.639Z,94130.41
2022-08-17T23:08:49.567Z,94121.63
2022-08-17T23:11:16.471Z,94122.00
2022-08-17T23:13:44.405Z,94116.34
2022-08-17T23:16:11.045Z,94120.09
2022-08-17T23:18:37.867Z,94119.34
2022-08-17T23:21:05.680Z,94103.34
2022-08-17T23:23:32.288Z,94096.19
2022-08-17T23:25:58.872Z,94087.47
2022-08-17T23:28:25.467Z,94080.31
2022-08-17T23:30:52.119Z,94084.47
2022-08-17T23:33:26.561Z,94073.06
2022-08-17T23:35:54.060Z,94074.59
2022-08-17T23:38:20.754Z,94063.59
2022-08-17T23:40:47.331Z,94060.53
2022-08-17T23:43:24.677Z,94061.72
2022-08-17T23:45:57.971Z,94066.19
2022-08-17T23:48:28.497Z,94063.41
2022-08-17T23:51:05.886Z,94058.69
2022-08-17T23:53:34.769Z,94062.50
2022-08-17T23:56:09.591Z,94058.31
2022-08-17T23:58:38.640Z,94067.03
